sensor_id;sensor_type;location;lat;lon;timestamp;P1;durP1;ratioP1;P2;durP2;ratioP2
8466;SDS011;4270;48.148;11.648;2023-04-30T00:01:45;6.10;;;4.60;;
8466;SDS011;4270;48.148;11.648;2023-04-30T00:04:10;7.90;;;5.17;;
8466;SDS011;4270;48.148;11.648;2023-04-30T00:06:35;6.40;;;5.13;;
8466;SDS011;4270;48.148;11.648;2023-04-30T00:09:00;15.10;;;6.03;;
8466;SDS011;4270;48.148;11.648;2023-04-30T00:11:25;6.63;;;5.03;;
8466;SDS011;4270;48.148;11.648;2023-04-30T00:13:50;7.80;;;5.37;;
8466;SDS011;4270;48.148;11.648;2023-04-30T00:16:16;8.23;;;5.90;;
8466;SDS011;4270;48.148;11.648;2023-04-30T00:18:41;6.90;;;5.07;;
8466;SDS011;4270;48.148;11.648;2023-04-30T00:21:06;6.20;;;4.33;;
8466;SDS011;4270;48.148;11.648;2023-04-30T00:23:37;6.70;;;5.63;;
8466;SDS011;4270;48.148;11.648;2023-04-30T00:26:03;7.23;;;5.00;;
8466;SDS011;4270;48.148;11.648;2023-04-30T00:28:28;6.50;;;4.70;;
8466;SDS011;4270;48.148;11.648;2023-04-30T00:30:53;7.63;;;6.20;;
8466;SDS011;4270;48.148;11.648;2023-04-30T00:33:18;6.33;;;5.30;;
8466;SDS011;4270;48.148;11.648;2023-04-30T00:35:44;7.27;;;5.37;;
8466;SDS011;4270;48.148;11.648;2023-04-30T00:38:09;6.40;;;5.60;;
8466;SDS011;4270;48.148;11.648;2023-04-30T00:40:34;6.07;;;5.47;;
8466;SDS011;4270;48.148;11.648;2023-04-30T00:43:00;7.43;;;5.63;;
8466;SDS011;4270;48.148;11.648;2023-04-30T00:45:25;6.87;;;5.30;;
8466;SDS011;4270;48.148;11.648;2023-04-30T00:47:50;8.60;;;5.67;;
8466;SDS011;4270;48.148;11.648;2023-04-30T00:50:15;7.97;;;4.97;;
8466;SDS011;4270;48.148;11.648;2023-04-30T00:52:41;6.60;;;5.27;;
8466;SDS011;4270;48.148;11.648;2023-04-30T00:55:06;6.10;;;5.10;;
8466;SDS011;4270;48.148;11.648;2023-04-30T00:57:32;8.13;;;6.10;;
8466;SDS011;4270;48.148;11.648;2023-04-30T00:59:58;6.97;;;5.10;;
8466;SDS011;4270;48.148;11.648;2023-04-30T01:02:23;6.30;;;5.30;;
8466;SDS011;4270;48.148;11.648;2023-04-30T01:04:49;6.93;;;5.30;;
8466;SDS011;4270;48.148;11.648;2023-04-30T01:07:14;6.30;;;5.00;;
8466;SDS011;4270;48.148;11.648;2023-04-30T01:09:39;9.13;;;5.37;;
8466;SDS011;4270;48.148;11.648;2023-04-30T01:12:09;7.73;;;5.30;;
8466;SDS011;4270;48.148;11.648;2023-04-30T01:17:04;6.93;;;5.20;;
8466;SDS011;4270;48.148;11.648;2023-04-30T01:19:45;7.13;;;5.57;;
8466;SDS011;4270;48.148;11.648;2023-04-30T01:22:13;7.33;;;5.27;;
8466;SDS011;4270;48.148;11.648;2023-04-30T01:27:21;8.70;;;6.07;;
8466;SDS011;4270;48.148;11.648;2023-04-30T01:29:47;7.17;;;5.77;;
8466;SDS011;4270;48.148;11.648;2023-04-30T01:32:13;7.40;;;5.40;;
8466;SDS011;4270;48.148;11.648;2023-04-30T01:34:38;6.70;;;5.60;;
8466;SDS011;4270;48.148;11.648;2023-04-30T01:39:45;8.73;;;5.65;;
8466;SDS011;4270;48.148;11.648;2023-04-30T01:42:15;7.30;;;5.27;;
8466;SDS011;4270;48.148;11.648;2023-04-30T01:44:48;7.37;;;5.60;;
8466;SDS011;4270;48.148;11.648;2023-04-30T01:47:22;8.57;;;5.17;;
8466;SDS011;4270;48.148;11.648;2023-04-30T01:52:16;8.00;;;6.13;;
8466;SDS011;4270;48.148;11.648;2023-04-30T01:57:12;7.40;;;5.57;;
8466;SDS011;4270;48.148;11.648;2023-04-30T01:59:38;7.40;;;5.50;;
8466;SDS011;4270;48.148;11.648;2023-04-30T02:02:05;8.03;;;5.53;;
8466;SDS011;4270;48.148;11.648;2023-04-30T02:04:30;8.47;;;6.10;;
8466;SDS011;4270;48.148;11.648;2023-04-30T02:06:55;8.13;;;5.43;;
8466;SDS011;4270;48.148;11.648;2023-04-30T02:09:22;8.33;;;6.10;;
8466;SDS011;4270;48.148;11.648;2023-04-30T02:11:48;8.97;;;5.93;;
8466;SDS011;4270;48.148;11.648;2023-04-30T02:14:13;9.37;;;5.60;;
8466;SDS011;4270;48.148;11.648;2023-04-30T02:16:38;8.00;;;6.07;;
8466;SDS011;4270;48.148;11.648;2023-04-30T02:19:03;8.57;;;6.20;;
8466;SDS011;4270;48.148;11.648;2023-04-30T02:21:28;8.70;;;6.20;;
8466;SDS011;4270;48.148;11.648;2023-04-30T02:23:53;8.40;;;6.03;;
8466;SDS011;4270;48.148;11.648;2023-04-30T02:26:19;9.50;;;5.93;;
8466;SDS011;4270;48.148;11.648;2023-04-30T02:28:45;8.80;;;6.30;;
8466;SDS011;4270;48.148;11.648;2023-04-30T02:31:10;8.33;;;6.30;;
8466;SDS011;4270;48.148;11.648;2023-04-30T02:33:35;7.57;;;6.07;;
8466;SDS011;4270;48.148;11.648;2023-04-30T02:36:00;15.30;;;6.37;;
8466;SDS011;4270;48.148;11.648;2023-04-30T02:38:26;8.87;;;6.30;;
8466;SDS011;4270;48.148;11.648;2023-04-30T02:40:51;8.10;;;6.50;;
8466;SDS011;4270;48.148;11.648;2023-04-30T02:43:16;7.80;;;6.30;;
8466;SDS011;4270;48.148;11.648;2023-04-30T02:45:41;9.00;;;6.40;;
8466;SDS011;4270;48.148;11.648;2023-04-30T02:48:06;13.90;;;6.93;;
8466;SDS011;4270;48.148;11.648;2023-04-30T02:50:31;10.50;;;7.20;;
8466;SDS011;4270;48.148;11.648;2023-04-30T02:52:57;11.33;;;6.10;;
8466;SDS011;4270;48.148;11.648;2023-04-30T02:55:22;7.10;;;5.70;;
8466;SDS011;4270;48.148;11.648;2023-04-30T02:57:47;9.10;;;7.20;;
8466;SDS011;4270;48.148;11.648;2023-04-30T03:00:12;9.63;;;6.17;;
8466;SDS011;4270;48.148;11.648;2023-04-30T03:02:38;10.37;;;6.53;;
8466;SDS011;4270;48.148;11.648;2023-04-30T03:05:03;8.10;;;5.50;;
8466;SDS011;4270;48.148;11.648;2023-04-30T03:07:28;9.47;;;7.07;;
8466;SDS011;4270;48.148;11.648;2023-04-30T03:09:54;7.80;;;5.97;;
8466;SDS011;4270;48.148;11.648;2023-04-30T03:12:19;9.17;;;6.50;;
8466;SDS011;4270;48.148;11.648;2023-04-30T03:14:44;9.37;;;6.97;;
8466;SDS011;4270;48.148;11.648;2023-04-30T03:17:09;7.60;;;5.90;;
8466;SDS011;4270;48.148;11.648;2023-04-30T03:19:35;11.20;;;7.10;;
8466;SDS011;4270;48.148;11.648;2023-04-30T03:22:00;8.83;;;6.63;;
8466;SDS011;4270;48.148;11.648;2023-04-30T03:24:25;10.73;;;7.03;;
8466;SDS011;4270;48.148;11.648;2023-04-30T03:26:50;10.67;;;7.27;;
8466;SDS011;4270;48.148;11.648;2023-04-30T03:29:15;10.73;;;6.80;;
8466;SDS011;4270;48.148;11.648;2023-04-30T03:31:40;8.27;;;6.50;;
8466;SDS011;4270;48.148;11.648;2023-04-30T03:34:06;8.57;;;6.70;;
8466;SDS011;4270;48.148;11.648;2023-04-30T03:36:31;12.82;;;7.00;;
8466;SDS011;4270;48.148;11.648;2023-04-30T03:38:57;9.23;;;6.93;;
8466;SDS011;4270;48.148;11.648;2023-04-30T03:41:22;10.97;;;7.70;;
8466;SDS011;4270;48.148;11.648;2023-04-30T03:43:48;10.23;;;6.90;;
8466;SDS011;4270;48.148;11.648;2023-04-30T03:46:13;9.25;;;6.53;;
8466;SDS011;4270;48.148;11.648;2023-04-30T03:48:38;10.82;;;7.53;;
8466;SDS011;4270;48.148;11.648;2023-04-30T03:51:03;11.90;;;8.27;;
8466;SDS011;4270;48.148;11.648;2023-04-30T03:53:28;10.43;;;7.83;;
8466;SDS011;4270;48.148;11.648;2023-04-30T03:55:53;11.00;;;8.00;;
8466;SDS011;4270;48.148;11.648;2023-04-30T03:58:19;15.87;;;7.87;;
8466;SDS011;4270;48.148;11.648;2023-04-30T04:00:45;11.50;;;7.57;;
8466;SDS011;4270;48.148;11.648;2023-04-30T04:03:11;11.10;;;7.70;;
8466;SDS011;4270;48.148;11.648;2023-04-30T04:05:36;11.80;;;8.70;;
8466;SDS011;4270;48.148;11.648;2023-04-30T04:08:02;10.70;;;8.10;;
8466;SDS011;4270;48.148;11.648;2023-04-30T04:10:27;11.83;;;8.10;;
8466;SDS011;4270;48.148;11.648;2023-04-30T04:12:52;10.20;;;7.83;;
8466;SDS011;4270;48.148;11.648;2023-04-30T04:15:17;11.40;;;8.00;;
8466;SDS011;4270;48.148;11.648;2023-04-30T04:17:42;11.23;;;7.20;;
8466;SDS011;4270;48.148;11.648;2023-04-30T04:20:08;11.70;;;7.80;;
8466;SDS011;4270;48.148;11.648;2023-04-30T04:22:33;10.70;;;8.00;;
8466;SDS011;4270;48.148;11.648;2023-04-30T04:24:58;13.00;;;7.87;;
8466;SDS011;4270;48.148;11.648;2023-04-30T04:27:23;9.33;;;7.33;;
8466;SDS011;4270;48.148;11.648;2023-04-30T04:29:49;11.10;;;8.03;;
8466;SDS011;4270;48.148;11.648;2023-04-30T04:32:14;11.20;;;8.20;;
8466;SDS011;4270;48.148;11.648;2023-04-30T04:34:39;12.77;;;8.57;;
8466;SDS011;4270;48.148;11.648;2023-04-30T04:37:04;10.03;;;8.20;;
8466;SDS011;4270;48.148;11.648;2023-04-30T04:39:30;9.20;;;6.90;;
8466;SDS011;4270;48.148;11.648;2023-04-30T04:41:55;11.23;;;8.20;;
8466;SDS011;4270;48.148;11.648;2023-04-30T04:44:20;10.53;;;8.27;;
8466;SDS011;4270;48.148;11.648;2023-04-30T04:46:46;9.80;;;7.30;;
8466;SDS011;4270;48.148;11.648;2023-04-30T04:49:11;10.50;;;7.77;;
8466;SDS011;4270;48.148;11.648;2023-04-30T04:51:37;11.20;;;7.97;;
8466;SDS011;4270;48.148;11.648;2023-04-30T04:54:03;10.50;;;8.20;;
8466;SDS011;4270;48.148;11.648;2023-04-30T04:56:28;8.73;;;7.27;;
8466;SDS011;4270;48.148;11.648;2023-04-30T04:58:54;9.53;;;7.10;;
8466;SDS011;4270;48.148;11.648;2023-04-30T05:01:19;9.23;;;7.60;;
8466;SDS011;4270;48.148;11.648;2023-04-30T05:03:45;8.40;;;6.87;;
8466;SDS011;4270;48.148;11.648;2023-04-30T05:06:10;9.88;;;7.25;;
8466;SDS011;4270;48.148;11.648;2023-04-30T05:08:35;11.60;;;8.07;;
8466;SDS011;4270;48.148;11.648;2023-04-30T05:11:00;9.57;;;7.23;;
8466;SDS011;4270;48.148;11.648;2023-04-30T05:13:26;10.52;;;8.07;;
8466;SDS011;4270;48.148;11.648;2023-04-30T05:15:51;9.73;;;7.50;;
8466;SDS011;4270;48.148;11.648;2023-04-30T05:18:17;8.63;;;7.40;;
8466;SDS011;4270;48.148;11.648;2023-04-30T05:20:42;9.87;;;7.40;;
8466;SDS011;4270;48.148;11.648;2023-04-30T05:23:07;10.10;;;7.93;;
8466;SDS011;4270;48.148;11.648;2023-04-30T05:25:32;9.40;;;7.17;;
8466;SDS011;4270;48.148;11.648;2023-04-30T05:27:57;12.10;;;7.90;;
8466;SDS011;4270;48.148;11.648;2023-04-30T05:30:31;10.93;;;7.00;;
8466;SDS011;4270;48.148;11.648;2023-04-30T05:32:57;11.30;;;7.63;;
8466;SDS011;4270;48.148;11.648;2023-04-30T05:35:22;10.13;;;7.93;;
8466;SDS011;4270;48.148;11.648;2023-04-30T05:37:47;11.47;;;8.40;;
8466;SDS011;4270;48.148;11.648;2023-04-30T05:40:12;10.07;;;8.20;;
8466;SDS011;4270;48.148;11.648;2023-04-30T05:42:38;9.33;;;7.70;;
8466;SDS011;4270;48.148;11.648;2023-04-30T05:45:05;9.13;;;7.93;;
8466;SDS011;4270;48.148;11.648;2023-04-30T05:47:30;8.67;;;7.30;;
8466;SDS011;4270;48.148;11.648;2023-04-30T05:49:55;9.80;;;8.10;;
8466;SDS011;4270;48.148;11.648;2023-04-30T05:52:21;10.27;;;7.77;;
8466;SDS011;4270;48.148;11.648;2023-04-30T05:54:46;10.13;;;7.90;;
8466;SDS011;4270;48.148;11.648;2023-04-30T05:57:12;9.90;;;8.03;;
8466;SDS011;4270;48.148;11.648;2023-04-30T05:59:37;9.17;;;7.00;;
8466;SDS011;4270;48.148;11.648;2023-04-30T06:02:02;9.03;;;7.40;;
8466;SDS011;4270;48.148;11.648;2023-04-30T06:04:27;11.47;;;7.57;;
8466;SDS011;4270;48.148;11.648;2023-04-30T06:06:53;10.33;;;7.23;;
8466;SDS011;4270;48.148;11.648;2023-04-30T06:09:18;10.17;;;8.20;;
8466;SDS011;4270;48.148;11.648;2023-04-30T06:11:43;9.30;;;7.20;;
8466;SDS011;4270;48.148;11.648;2023-04-30T06:14:09;9.00;;;6.93;;
8466;SDS011;4270;48.148;11.648;2023-04-30T06:16:34;8.60;;;7.70;;
8466;SDS011;4270;48.148;11.648;2023-04-30T06:19:00;12.40;;;7.37;;
8466;SDS011;4270;48.148;11.648;2023-04-30T06:21:25;10.10;;;7.00;;
8466;SDS011;4270;48.148;11.648;2023-04-30T06:23:50;8.20;;;7.13;;
8466;SDS011;4270;48.148;11.648;2023-04-30T06:26:16;7.30;;;6.60;;
8466;SDS011;4270;48.148;11.648;2023-04-30T06:28:41;8.07;;;6.70;;
8466;SDS011;4270;48.148;11.648;2023-04-30T06:31:07;7.73;;;6.97;;
8466;SDS011;4270;48.148;11.648;2023-04-30T06:33:32;7.90;;;7.10;;
8466;SDS011;4270;48.148;11.648;2023-04-30T06:35:57;7.43;;;6.25;;
8466;SDS011;4270;48.148;11.648;2023-04-30T06:38:22;8.37;;;5.43;;
8466;SDS011;4270;48.148;11.648;2023-04-30T06:40:47;49.20;;;10.93;;
8466;SDS011;4270;48.148;11.648;2023-04-30T06:43:13;7.30;;;6.07;;
8466;SDS011;4270;48.148;11.648;2023-04-30T06:45:38;6.17;;;5.57;;
8466;SDS011;4270;48.148;11.648;2023-04-30T06:48:03;6.40;;;5.90;;
8466;SDS011;4270;48.148;11.648;2023-04-30T06:50:28;7.00;;;5.97;;
8466;SDS011;4270;48.148;11.648;2023-04-30T06:52:54;7.03;;;6.43;;
8466;SDS011;4270;48.148;11.648;2023-04-30T06:55:19;6.17;;;5.67;;
8466;SDS011;4270;48.148;11.648;2023-04-30T06:57:44;6.43;;;5.83;;
8466;SDS011;4270;48.148;11.648;2023-04-30T07:00:09;5.80;;;5.40;;
8466;SDS011;4270;48.148;11.648;2023-04-30T07:02:35;6.10;;;5.53;;
8466;SDS011;4270;48.148;11.648;2023-04-30T07:05:00;5.73;;;5.30;;
8466;SDS011;4270;48.148;11.648;2023-04-30T07:07:26;5.93;;;5.47;;
8466;SDS011;4270;48.148;11.648;2023-04-30T07:09:51;6.20;;;5.70;;
8466;SDS011;4270;48.148;11.648;2023-04-30T07:12:17;6.07;;;5.57;;
8466;SDS011;4270;48.148;11.648;2023-04-30T07:14:42;5.60;;;5.10;;
8466;SDS011;4270;48.148;11.648;2023-04-30T07:17:08;6.37;;;5.63;;
8466;SDS011;4270;48.148;11.648;2023-04-30T07:19:33;5.70;;;5.25;;
8466;SDS011;4270;48.148;11.648;2023-04-30T07:21:58;5.77;;;5.27;;
8466;SDS011;4270;48.148;11.648;2023-04-30T07:24:24;5.30;;;4.90;;
8466;SDS011;4270;48.148;11.648;2023-04-30T07:26:49;5.63;;;5.23;;
8466;SDS011;4270;48.148;11.648;2023-04-30T07:29:14;6.77;;;6.17;;
8466;SDS011;4270;48.148;11.648;2023-04-30T07:31:40;6.30;;;5.70;;
8466;SDS011;4270;48.148;11.648;2023-04-30T07:34:05;6.83;;;6.23;;
8466;SDS011;4270;48.148;11.648;2023-04-30T07:36:30;6.33;;;5.47;;
8466;SDS011;4270;48.148;11.648;2023-04-30T07:38:55;5.93;;;5.43;;
8466;SDS011;4270;48.148;11.648;2023-04-30T07:41:21;6.43;;;5.82;;
8466;SDS011;4270;48.148;11.648;2023-04-30T07:43:46;6.17;;;5.67;;
8466;SDS011;4270;48.148;11.648;2023-04-30T07:46:11;5.93;;;5.33;;
8466;SDS011;4270;48.148;11.648;2023-04-30T07:48:36;6.00;;;5.40;;
8466;SDS011;4270;48.148;11.648;2023-04-30T07:51:02;6.70;;;6.10;;
8466;SDS011;4270;48.148;11.648;2023-04-30T07:53:28;6.17;;;5.57;;
8466;SDS011;4270;48.148;11.648;2023-04-30T07:55:53;7.63;;;6.00;;
8466;SDS011;4270;48.148;11.648;2023-04-30T07:58:19;6.43;;;5.27;;
8466;SDS011;4270;48.148;11.648;2023-04-30T08:00:44;6.17;;;5.63;;
8466;SDS011;4270;48.148;11.648;2023-04-30T08:03:09;6.53;;;5.30;;
8466;SDS011;4270;48.148;11.648;2023-04-30T08:05:35;5.20;;;4.70;;
8466;SDS011;4270;48.148;11.648;2023-04-30T08:08:00;6.00;;;5.40;;
8466;SDS011;4270;48.148;11.648;2023-04-30T08:10:25;6.00;;;5.20;;
8466;SDS011;4270;48.148;11.648;2023-04-30T08:12:51;5.87;;;5.27;;
8466;SDS011;4270;48.148;11.648;2023-04-30T08:15:17;6.97;;;6.27;;
8466;SDS011;4270;48.148;11.648;2023-04-30T08:17:45;6.90;;;6.30;;
8466;SDS011;4270;48.148;11.648;2023-04-30T08:20:10;7.60;;;6.90;;
8466;SDS011;4270;48.148;11.648;2023-04-30T08:22:35;7.67;;;6.17;;
8466;SDS011;4270;48.148;11.648;2023-04-30T08:25:01;7.00;;;6.40;;
8466;SDS011;4270;48.148;11.648;2023-04-30T08:27:26;6.70;;;6.10;;
8466;SDS011;4270;48.148;11.648;2023-04-30T08:29:52;6.90;;;6.30;;
8466;SDS011;4270;48.148;11.648;2023-04-30T08:32:17;7.60;;;6.80;;
8466;SDS011;4270;48.148;11.648;2023-04-30T08:34:42;7.13;;;6.43;;
8466;SDS011;4270;48.148;11.648;2023-04-30T08:37:08;5.60;;;5.10;;
8466;SDS011;4270;48.148;11.648;2023-04-30T08:39:33;5.70;;;5.20;;
8466;SDS011;4270;48.148;11.648;2023-04-30T08:42:00;4.70;;;4.30;;
8466;SDS011;4270;48.148;11.648;2023-04-30T08:44:26;5.10;;;4.70;;
8466;SDS011;4270;48.148;11.648;2023-04-30T08:46:52;4.87;;;4.47;;
8466;SDS011;4270;48.148;11.648;2023-04-30T08:49:17;4.60;;;4.20;;
8466;SDS011;4270;48.148;11.648;2023-04-30T08:51:43;4.53;;;4.17;;
8466;SDS011;4270;48.148;11.648;2023-04-30T08:54:09;4.80;;;4.40;;
8466;SDS011;4270;48.148;11.648;2023-04-30T08:56:36;4.87;;;4.47;;
8466;SDS011;4270;48.148;11.648;2023-04-30T08:59:01;5.80;;;4.80;;
8466;SDS011;4270;48.148;11.648;2023-04-30T09:01:27;5.20;;;4.20;;
8466;SDS011;4270;48.148;11.648;2023-04-30T09:03:53;4.43;;;4.03;;
8466;SDS011;4270;48.148;11.648;2023-04-30T09:06:18;4.60;;;4.20;;
8466;SDS011;4270;48.148;11.648;2023-04-30T09:08:44;4.57;;;4.17;;
8466;SDS011;4270;48.148;11.648;2023-04-30T09:13:46;4.40;;;4.03;;
8466;SDS011;4270;48.148;11.648;2023-04-30T09:16:12;4.27;;;3.80;;
8466;SDS011;4270;48.148;11.648;2023-04-30T09:18:38;4.80;;;4.40;;
8466;SDS011;4270;48.148;11.648;2023-04-30T09:21:03;5.00;;;4.17;;
8466;SDS011;4270;48.148;11.648;2023-04-30T09:23:30;4.50;;;4.10;;
8466;SDS011;4270;48.148;11.648;2023-04-30T09:25:55;5.43;;;4.57;;
8466;SDS011;4270;48.148;11.648;2023-04-30T09:28:21;7.20;;;4.40;;
8466;SDS011;4270;48.148;11.648;2023-04-30T09:30:48;5.37;;;4.13;;
8466;SDS011;4270;48.148;11.648;2023-04-30T09:33:14;7.20;;;5.30;;
8466;SDS011;4270;48.148;11.648;2023-04-30T09:35:39;5.30;;;4.67;;
8466;SDS011;4270;48.148;11.648;2023-04-30T09:38:05;5.90;;;4.90;;
8466;SDS011;4270;48.148;11.648;2023-04-30T09:40:36;5.37;;;4.87;;
8466;SDS011;4270;48.148;11.648;2023-04-30T09:43:02;5.07;;;4.57;;
8466;SDS011;4270;48.148;11.648;2023-04-30T09:45:37;5.70;;;5.20;;
8466;SDS011;4270;48.148;11.648;2023-04-30T09:48:03;5.23;;;4.77;;
8466;SDS011;4270;48.148;11.648;2023-04-30T09:50:31;5.87;;;5.30;;
8466;SDS011;4270;48.148;11.648;2023-04-30T09:53:07;5.13;;;4.63;;
8466;SDS011;4270;48.148;11.648;2023-04-30T09:55:33;5.83;;;5.23;;
8466;SDS011;4270;48.148;11.648;2023-04-30T09:57:59;5.90;;;5.40;;
8466;SDS011;4270;48.148;11.648;2023-04-30T10:00:25;5.00;;;4.60;;
8466;SDS011;4270;48.148;11.648;2023-04-30T10:02:50;6.43;;;5.30;;
8466;SDS011;4270;48.148;11.648;2023-04-30T10:05:16;5.73;;;5.07;;
8466;SDS011;4270;48.148;11.648;2023-04-30T10:07:42;5.37;;;4.90;;
8466;SDS011;4270;48.148;11.648;2023-04-30T10:10:07;6.60;;;5.60;;
8466;SDS011;4270;48.148;11.648;2023-04-30T10:12:34;5.40;;;5.00;;
8466;SDS011;4270;48.148;11.648;2023-04-30T10:15:05;6.30;;;5.80;;
8466;SDS011;4270;48.148;11.648;2023-04-30T10:17:33;5.10;;;4.60;;
8466;SDS011;4270;48.148;11.648;2023-04-30T10:20:04;5.40;;;5.00;;
8466;SDS011;4270;48.148;11.648;2023-04-30T10:22:31;5.30;;;4.90;;
8466;SDS011;4270;48.148;11.648;2023-04-30T10:24:57;5.00;;;4.50;;
8466;SDS011;4270;48.148;11.648;2023-04-30T10:27:23;4.57;;;4.03;;
8466;SDS011;4270;48.148;11.648;2023-04-30T10:29:49;6.20;;;5.60;;
8466;SDS011;4270;48.148;11.648;2023-04-30T10:32:14;6.90;;;4.97;;
8466;SDS011;4270;48.148;11.648;2023-04-30T10:37:06;4.10;;;3.80;;
8466;SDS011;4270;48.148;11.648;2023-04-30T10:39:33;4.37;;;3.80;;
8466;SDS011;4270;48.148;11.648;2023-04-30T10:42:00;4.23;;;3.83;;
8466;SDS011;4270;48.148;11.648;2023-04-30T10:44:25;4.60;;;4.20;;
8466;SDS011;4270;48.148;11.648;2023-04-30T10:46:57;4.33;;;3.93;;
8466;SDS011;4270;48.148;11.648;2023-04-30T10:49:25;4.27;;;3.87;;
8466;SDS011;4270;48.148;11.648;2023-04-30T10:51:51;4.30;;;3.90;;
8466;SDS011;4270;48.148;11.648;2023-04-30T10:54:21;5.03;;;3.90;;
8466;SDS011;4270;48.148;11.648;2023-04-30T10:56:49;3.90;;;3.60;;
8466;SDS011;4270;48.148;11.648;2023-04-30T10:59:15;3.77;;;3.40;;
8466;SDS011;4270;48.148;11.648;2023-04-30T11:01:59;4.93;;;4.40;;
8466;SDS011;4270;48.148;11.648;2023-04-30T11:04:25;5.57;;;4.13;;
8466;SDS011;4270;48.148;11.648;2023-04-30T11:07:07;5.10;;;4.60;;
8466;SDS011;4270;48.148;11.648;2023-04-30T11:12:13;4.00;;;3.60;;
8466;SDS011;4270;48.148;11.648;2023-04-30T11:14:39;3.87;;;3.53;;
8466;SDS011;4270;48.148;11.648;2023-04-30T11:17:05;4.20;;;3.80;;
8466;SDS011;4270;48.148;11.648;2023-04-30T11:19:30;4.67;;;4.27;;
8466;SDS011;4270;48.148;11.648;2023-04-30T11:27:13;4.00;;;3.60;;
8466;SDS011;4270;48.148;11.648;2023-04-30T11:29:38;4.97;;;4.47;;
8466;SDS011;4270;48.148;11.648;2023-04-30T11:32:04;4.73;;;4.00;;
8466;SDS011;4270;48.148;11.648;2023-04-30T11:34:29;3.80;;;3.50;;
8466;SDS011;4270;48.148;11.648;2023-04-30T11:36:55;3.33;;;3.03;;
8466;SDS011;4270;48.148;11.648;2023-04-30T11:39:22;3.13;;;2.83;;
8466;SDS011;4270;48.148;11.648;2023-04-30T11:41:48;2.80;;;2.60;;
8466;SDS011;4270;48.148;11.648;2023-04-30T11:44:24;3.10;;;2.63;;
8466;SDS011;4270;48.148;11.648;2023-04-30T11:46:49;3.00;;;2.70;;
8466;SDS011;4270;48.148;11.648;2023-04-30T11:49:15;3.50;;;2.60;;
8466;SDS011;4270;48.148;11.648;2023-04-30T11:51:40;3.57;;;3.07;;
8466;SDS011;4270;48.148;11.648;2023-04-30T11:54:06;3.57;;;3.10;;
8466;SDS011;4270;48.148;11.648;2023-04-30T11:56:32;3.87;;;3.10;;
8466;SDS011;4270;48.148;11.648;2023-04-30T11:59:01;2.87;;;2.67;;
8466;SDS011;4270;48.148;11.648;2023-04-30T12:01:33;2.93;;;2.70;;
8466;SDS011;4270;48.148;11.648;2023-04-30T12:03:58;3.70;;;3.40;;
8466;SDS011;4270;48.148;11.648;2023-04-30T12:06:25;3.23;;;2.93;;
8466;SDS011;4270;48.148;11.648;2023-04-30T12:08:54;3.63;;;3.27;;
8466;SDS011;4270;48.148;11.648;2023-04-30T12:11:20;3.57;;;3.23;;
8466;SDS011;4270;48.148;11.648;2023-04-30T12:13:49;2.90;;;2.70;;
8466;SDS011;4270;48.148;11.648;2023-04-30T12:16:15;3.60;;;3.13;;
8466;SDS011;4270;48.148;11.648;2023-04-30T12:18:40;3.93;;;3.27;;
8466;SDS011;4270;48.148;11.648;2023-04-30T12:21:05;3.30;;;3.00;;
8466;SDS011;4270;48.148;11.648;2023-04-30T12:23:30;4.80;;;2.70;;
8466;SDS011;4270;48.148;11.648;2023-04-30T12:25:58;2.77;;;2.57;;
8466;SDS011;4270;48.148;11.648;2023-04-30T12:28:23;2.60;;;2.40;;
8466;SDS011;4270;48.148;11.648;2023-04-30T12:30:48;3.20;;;2.80;;
8466;SDS011;4270;48.148;11.648;2023-04-30T12:33:15;2.83;;;2.63;;
8466;SDS011;4270;48.148;11.648;2023-04-30T12:35:41;3.30;;;2.80;;
8466;SDS011;4270;48.148;11.648;2023-04-30T12:38:07;2.80;;;2.53;;
8466;SDS011;4270;48.148;11.648;2023-04-30T12:40:33;3.93;;;3.10;;
8466;SDS011;4270;48.148;11.648;2023-04-30T12:43:03;3.50;;;3.20;;
8466;SDS011;4270;48.148;11.648;2023-04-30T12:45:48;4.00;;;3.60;;
8466;SDS011;4270;48.148;11.648;2023-04-30T12:48:15;3.70;;;3.40;;
8466;SDS011;4270;48.148;11.648;2023-04-30T12:50:41;3.47;;;3.20;;
8466;SDS011;4270;48.148;11.648;2023-04-30T12:53:07;3.50;;;3.20;;
8466;SDS011;4270;48.148;11.648;2023-04-30T12:55:32;3.50;;;3.03;;
8466;SDS011;4270;48.148;11.648;2023-04-30T12:58:09;3.53;;;3.10;;
8466;SDS011;4270;48.148;11.648;2023-04-30T13:03:08;4.10;;;3.20;;
8466;SDS011;4270;48.148;11.648;2023-04-30T13:05:34;3.40;;;3.20;;
8466;SDS011;4270;48.148;11.648;2023-04-30T13:08:02;3.80;;;3.40;;
8466;SDS011;4270;48.148;11.648;2023-04-30T13:10:30;3.17;;;2.87;;
8466;SDS011;4270;48.148;11.648;2023-04-30T13:12:55;3.00;;;2.70;;
8466;SDS011;4270;48.148;11.648;2023-04-30T13:15:20;2.90;;;2.70;;
8466;SDS011;4270;48.148;11.648;2023-04-30T13:17:45;3.87;;;3.57;;
8466;SDS011;4270;48.148;11.648;2023-04-30T13:20:11;3.50;;;2.70;;
8466;SDS011;4270;48.148;11.648;2023-04-30T13:22:36;2.97;;;2.67;;
8466;SDS011;4270;48.148;11.648;2023-04-30T13:25:01;3.27;;;2.63;;
8466;SDS011;4270;48.148;11.648;2023-04-30T13:27:27;3.50;;;2.90;;
8466;SDS011;4270;48.148;11.648;2023-04-30T13:29:52;4.17;;;2.87;;
8466;SDS011;4270;48.148;11.648;2023-04-30T13:32:17;3.20;;;2.90;;
8466;SDS011;4270;48.148;11.648;2023-04-30T13:34:42;4.40;;;4.00;;
8466;SDS011;4270;48.148;11.648;2023-04-30T13:37:08;3.53;;;3.23;;
8466;SDS011;4270;48.148;11.648;2023-04-30T13:39:34;3.10;;;2.63;;
8466;SDS011;4270;48.148;11.648;2023-04-30T13:41:59;4.43;;;3.10;;
8466;SDS011;4270;48.148;11.648;2023-04-30T13:44:25;3.77;;;3.47;;
8466;SDS011;4270;48.148;11.648;2023-04-30T13:46:50;3.30;;;3.00;;
8466;SDS011;4270;48.148;11.648;2023-04-30T13:49:15;3.00;;;2.80;;
8466;SDS011;4270;48.148;11.648;2023-04-30T13:51:40;3.10;;;2.90;;
8466;SDS011;4270;48.148;11.648;2023-04-30T13:54:06;3.37;;;2.90;;
8466;SDS011;4270;48.148;11.648;2023-04-30T13:56:31;2.87;;;2.57;;
8466;SDS011;4270;48.148;11.648;2023-04-30T13:58:56;2.40;;;2.20;;
8466;SDS011;4270;48.148;11.648;2023-04-30T14:01:21;4.97;;;2.37;;
8466;SDS011;4270;48.148;11.648;2023-04-30T14:03:46;3.17;;;2.53;;
8466;SDS011;4270;48.148;11.648;2023-04-30T14:06:12;3.20;;;2.57;;
8466;SDS011;4270;48.148;11.648;2023-04-30T14:08:37;3.83;;;3.37;;
8466;SDS011;4270;48.148;11.648;2023-04-30T14:11:02;3.30;;;2.67;;
8466;SDS011;4270;48.148;11.648;2023-04-30T14:13:27;3.17;;;2.87;;
8466;SDS011;4270;48.148;11.648;2023-04-30T14:15:53;2.73;;;2.27;;
8466;SDS011;4270;48.148;11.648;2023-04-30T14:18:19;2.50;;;2.17;;
8466;SDS011;4270;48.148;11.648;2023-04-30T14:20:46;3.03;;;2.20;;
8466;SDS011;4270;48.148;11.648;2023-04-30T14:23:11;3.30;;;2.93;;
8466;SDS011;4270;48.148;11.648;2023-04-30T14:25:37;2.83;;;2.50;;
8466;SDS011;4270;48.148;11.648;2023-04-30T14:28:02;4.63;;;2.73;;
8466;SDS011;4270;48.148;11.648;2023-04-30T14:30:27;2.73;;;2.50;;
8466;SDS011;4270;48.148;11.648;2023-04-30T14:32:53;3.10;;;2.77;;
8466;SDS011;4270;48.148;11.648;2023-04-30T14:35:18;2.83;;;2.63;;
8466;SDS011;4270;48.148;11.648;2023-04-30T14:37:43;3.03;;;2.77;;
8466;SDS011;4270;48.148;11.648;2023-04-30T14:40:09;3.60;;;3.30;;
8466;SDS011;4270;48.148;11.648;2023-04-30T14:42:34;2.90;;;2.70;;
8466;SDS011;4270;48.148;11.648;2023-04-30T14:44:59;5.20;;;3.13;;
8466;SDS011;4270;48.148;11.648;2023-04-30T14:47:24;5.80;;;2.97;;
8466;SDS011;4270;48.148;11.648;2023-04-30T14:49:51;3.00;;;2.70;;
8466;SDS011;4270;48.148;11.648;2023-04-30T14:52:17;2.80;;;2.53;;
8466;SDS011;4270;48.148;11.648;2023-04-30T14:54:43;3.20;;;2.90;;
8466;SDS011;4270;48.148;11.648;2023-04-30T14:57:09;3.37;;;3.10;;
8466;SDS011;4270;48.148;11.648;2023-04-30T14:59:34;3.50;;;3.20;;
8466;SDS011;4270;48.148;11.648;2023-04-30T15:02:00;3.07;;;2.77;;
8466;SDS011;4270;48.148;11.648;2023-04-30T15:04:25;3.50;;;3.20;;
8466;SDS011;4270;48.148;11.648;2023-04-30T15:06:50;3.13;;;2.83;;
8466;SDS011;4270;48.148;11.648;2023-04-30T15:09:16;3.47;;;2.90;;
8466;SDS011;4270;48.148;11.648;2023-04-30T15:11:41;4.00;;;2.83;;
8466;SDS011;4270;48.148;11.648;2023-04-30T15:14:06;3.13;;;2.93;;
8466;SDS011;4270;48.148;11.648;2023-04-30T15:16:31;2.90;;;2.70;;
8466;SDS011;4270;48.148;11.648;2023-04-30T15:18:56;3.10;;;2.80;;
8466;SDS011;4270;48.148;11.648;2023-04-30T15:21:22;5.70;;;3.40;;